sensor_id;sensor_type;location;lat;lon;timestamp;temperature;humidity
1155;DHT22;566;48.414;9.118;2023-01-28T00:01:14;-1.90;89.00
1155;DHT22;566;48.414;9.118;2023-01-28T00:03:41;-1.90;89.50
1155;DHT22;566;48.414;9.118;2023-01-28T00:06:12;-2.00;88.80
1155;DHT22;566;48.414;9.118;2023-01-28T00:08:38;-2.00;89.30
1155;DHT22;566;48.414;9.118;2023-01-28T00:11:07;-1.90;89.60
1155;DHT22;566;48.414;9.118;2023-01-28T00:13:34;-2.00;89.40
1155;DHT22;566;48.414;9.118;2023-01-28T00:16:04;-2.00;89.10
1155;DHT22;566;48.414;9.118;2023-01-28T00:18:32;-2.00;88.60
1155;DHT22;566;48.414;9.118;2023-01-28T00:21:02;-1.90;88.10
1155;DHT22;566;48.414;9.118;2023-01-28T00:23:30;-1.90;88.20
1155;DHT22;566;48.414;9.118;2023-01-28T00:26:02;-1.90;89.00
1155;DHT22;566;48.414;9.118;2023-01-28T00:28:28;-1.90;89.40
1155;DHT22;566;48.414;9.118;2023-01-28T00:30:53;-1.90;89.60
1155;DHT22;566;48.414;9.118;2023-01-28T00:33:19;-1.90;88.80
1155;DHT22;566;48.414;9.118;2023-01-28T00:35:45;-1.90;89.30
1155;DHT22;566;48.414;9.118;2023-01-28T00:38:11;-1.90;89.20
1155;DHT22;566;48.414;9.118;2023-01-28T00:40:37;-1.90;89.20
1155;DHT22;566;48.414;9.118;2023-01-28T00:43:02;-1.90;89.70
1155;DHT22;566;48.414;9.118;2023-01-28T00:45:28;-1.90;89.30
1155;DHT22;566;48.414;9.118;2023-01-28T00:47:54;-1.90;88.60
1155;DHT22;566;48.414;9.118;2023-01-28T00:50:20;-1.90;89.20
1155;DHT22;566;48.414;9.118;2023-01-28T00:52:46;-1.90;88.80
1155;DHT22;566;48.414;9.118;2023-01-28T00:55:13;-1.80;89.50
1155;DHT22;566;48.414;9.118;2023-01-28T00:57:38;-1.80;90.60
1155;DHT22;566;48.414;9.118;2023-01-28T01:00:04;-1.80;89.70
1155;DHT22;566;48.414;9.118;2023-01-28T01:02:30;-1.90;89.90
1155;DHT22;566;48.414;9.118;2023-01-28T01:04:56;-1.90;89.40
1155;DHT22;566;48.414;9.118;2023-01-28T01:07:28;-1.90;88.20
1155;DHT22;566;48.414;9.118;2023-01-28T01:10:03;-1.90;88.70
1155;DHT22;566;48.414;9.118;2023-01-28T01:12:29;-1.90;88.20
1155;DHT22;566;48.414;9.118;2023-01-28T01:14:55;-1.90;88.10
1155;DHT22;566;48.414;9.118;2023-01-28T01:17:21;-1.90;88.20
1155;DHT22;566;48.414;9.118;2023-01-28T01:19:46;-1.90;88.60
1155;DHT22;566;48.414;9.118;2023-01-28T01:22:12;-2.00;87.90
1155;DHT22;566;48.414;9.118;2023-01-28T01:24:37;-2.00;86.50
1155;DHT22;566;48.414;9.118;2023-01-28T01:27:03;-2.00;86.20
1155;DHT22;566;48.414;9.118;2023-01-28T01:29:31;-2.00;87.20
1155;DHT22;566;48.414;9.118;2023-01-28T01:31:59;-2.00;86.70
1155;DHT22;566;48.414;9.118;2023-01-28T01:34:25;-2.00;86.20
1155;DHT22;566;48.414;9.118;2023-01-28T01:36:50;-2.00;85.40
1155;DHT22;566;48.414;9.118;2023-01-28T01:39:16;-2.00;85.20
1155;DHT22;566;48.414;9.118;2023-01-28T01:41:42;-2.00;84.90
1155;DHT22;566;48.414;9.118;2023-01-28T01:47:12;-2.00;84.20
1155;DHT22;566;48.414;9.118;2023-01-28T01:49:38;-2.10;84.00
1155;DHT22;566;48.414;9.118;2023-01-28T01:52:11;-2.00;83.20
1155;DHT22;566;48.414;9.118;2023-01-28T01:54:38;-2.00;83.20
1155;DHT22;566;48.414;9.118;2023-01-28T01:57:09;-2.00;84.20
1155;DHT22;566;48.414;9.118;2023-01-28T01:59:36;-2.00;84.60
1155;DHT22;566;48.414;9.118;2023-01-28T02:02:04;-1.90;83.90
1155;DHT22;566;48.414;9.118;2023-01-28T02:04:41;-1.90;83.90
1155;DHT22;566;48.414;9.118;2023-01-28T02:07:09;-2.00;85.40
1155;DHT22;566;48.414;9.118;2023-01-28T02:09:36;-2.00;84.70
1155;DHT22;566;48.414;9.118;2023-01-28T02:12:11;-1.90;84.20
1155;DHT22;566;48.414;9.118;2023-01-28T02:14:42;-2.00;84.60
1155;DHT22;566;48.414;9.118;2023-01-28T02:17:09;-2.00;85.20
1155;DHT22;566;48.414;9.118;2023-01-28T02:20:03;-2.00;85.50
1155;DHT22;566;48.414;9.118;2023-01-28T02:22:50;-2.00;85.00
1155;DHT22;566;48.414;9.118;2023-01-28T02:30:57;-1.80;86.40
1155;DHT22;566;48.414;9.118;2023-01-28T02:36:27;-2.00;86.60
1155;DHT22;566;48.414;9.118;2023-01-28T02:38:57;-2.00;85.30
1155;DHT22;566;48.414;9.118;2023-01-28T02:41:33;-2.00;85.60
1155;DHT22;566;48.414;9.118;2023-01-28T02:44:01;-2.00;86.00
1155;DHT22;566;48.414;9.118;2023-01-28T02:49:17;-2.00;86.20
1155;DHT22;566;48.414;9.118;2023-01-28T02:54:59;-1.90;85.20
1155;DHT22;566;48.414;9.118;2023-01-28T03:00:26;-1.80;85.60
1155;DHT22;566;48.414;9.118;2023-01-28T03:03:04;-1.90;86.80
1155;DHT22;566;48.414;9.118;2023-01-28T03:05:39;-1.80;86.90
1155;DHT22;566;48.414;9.118;2023-01-28T03:08:07;-1.80;86.40
1155;DHT22;566;48.414;9.118;2023-01-28T03:10:54;-1.80;86.50
1155;DHT22;566;48.414;9.118;2023-01-28T03:13:40;-1.80;86.80
1155;DHT22;566;48.414;9.118;2023-01-28T03:16:25;-1.80;87.50
1155;DHT22;566;48.414;9.118;2023-01-28T03:19:10;-1.90;86.90
1155;DHT22;566;48.414;9.118;2023-01-28T03:21:57;-1.80;86.00
1155;DHT22;566;48.414;9.118;2023-01-28T03:24:48;-1.90;87.00
1155;DHT22;566;48.414;9.118;2023-01-28T03:27:48;-1.80;86.70
1155;DHT22;566;48.414;9.118;2023-01-28T03:30:42;-1.80;87.60
1155;DHT22;566;48.414;9.118;2023-01-28T03:33:29;-1.90;87.80
1155;DHT22;566;48.414;9.118;2023-01-28T03:36:14;-1.90;87.50
1155;DHT22;566;48.414;9.118;2023-01-28T03:38:58;-1.90;87.40
1155;DHT22;566;48.414;9.118;2023-01-28T03:41:25;-1.90;86.00
1155;DHT22;566;48.414;9.118;2023-01-28T03:43:51;-1.80;87.30
1155;DHT22;566;48.414;9.118;2023-01-28T03:46:18;-1.80;87.90
1155;DHT22;566;48.414;9.118;2023-01-28T03:48:43;-1.80;87.70
1155;DHT22;566;48.414;9.118;2023-01-28T03:51:09;-1.80;88.50
1155;DHT22;566;48.414;9.118;2023-01-28T03:53:36;-1.80;89.00
1155;DHT22;566;48.414;9.118;2023-01-28T03:56:01;-1.80;88.80
1155;DHT22;566;48.414;9.118;2023-01-28T03:58:27;-1.80;89.70
1155;DHT22;566;48.414;9.118;2023-01-28T04:01:10;-1.80;89.90
1155;DHT22;566;48.414;9.118;2023-01-28T04:03:35;-1.80;90.90
1155;DHT22;566;48.414;9.118;2023-01-28T04:06:05;-1.80;91.20
1155;DHT22;566;48.414;9.118;2023-01-28T04:08:30;-1.80;92.20
1155;DHT22;566;48.414;9.118;2023-01-28T04:10:56;-1.80;92.60
1155;DHT22;566;48.414;9.118;2023-01-28T04:13:22;-1.90;91.80
1155;DHT22;566;48.414;9.118;2023-01-28T04:15:48;-1.80;91.60
1155;DHT22;566;48.414;9.118;2023-01-28T04:18:14;-1.80;91.90
1155;DHT22;566;48.414;9.118;2023-01-28T04:20:39;-1.70;92.30
1155;DHT22;566;48.414;9.118;2023-01-28T04:23:06;-1.80;92.30
1155;DHT22;566;48.414;9.118;2023-01-28T04:25:32;-1.80;92.10
1155;DHT22;566;48.414;9.118;2023-01-28T04:27:58;-1.80;91.50
1155;DHT22;566;48.414;9.118;2023-01-28T04:30:24;-1.80;91.00
1155;DHT22;566;48.414;9.118;2023-01-28T04:32:50;-1.90;90.80
1155;DHT22;566;48.414;9.118;2023-01-28T04:35:16;-1.90;90.50
1155;DHT22;566;48.414;9.118;2023-01-28T04:37:42;-1.90;90.70
1155;DHT22;566;48.414;9.118;2023-01-28T04:40:09;-1.90;90.80
1155;DHT22;566;48.414;9.118;2023-01-28T04:42:35;-1.90;90.90
1155;DHT22;566;48.414;9.118;2023-01-28T04:45:05;-1.90;90.90
1155;DHT22;566;48.414;9.118;2023-01-28T04:47:30;-1.90;90.10
1155;DHT22;566;48.414;9.118;2023-01-28T04:49:56;-1.80;90.40
1155;DHT22;566;48.414;9.118;2023-01-28T04:52:21;-1.80;90.80
1155;DHT22;566;48.414;9.118;2023-01-28T04:54:47;-1.80;90.00
1155;DHT22;566;48.414;9.118;2023-01-28T04:57:13;-1.70;90.10
1155;DHT22;566;48.414;9.118;2023-01-28T04:59:40;-1.70;91.10
1155;DHT22;566;48.414;9.118;2023-01-28T05:02:05;-1.70;91.60
1155;DHT22;566;48.414;9.118;2023-01-28T05:04:31;-1.80;90.70
1155;DHT22;566;48.414;9.118;2023-01-28T05:06:57;-1.80;90.80
1155;DHT22;566;48.414;9.118;2023-01-28T05:09:22;-1.80;89.60
1155;DHT22;566;48.414;9.118;2023-01-28T05:11:48;-1.80;90.30
1155;DHT22;566;48.414;9.118;2023-01-28T05:14:14;-1.80;90.50
1155;DHT22;566;48.414;9.118;2023-01-28T05:16:39;-1.70;90.70
1155;DHT22;566;48.414;9.118;2023-01-28T05:19:05;-1.70;91.70
1155;DHT22;566;48.414;9.118;2023-01-28T05:21:30;-1.80;90.90
1155;DHT22;566;48.414;9.118;2023-01-28T05:23:56;-1.70;90.50
1155;DHT22;566;48.414;9.118;2023-01-28T05:26:21;-1.80;90.10
1155;DHT22;566;48.414;9.118;2023-01-28T05:28:47;-1.70;89.50
1155;DHT22;566;48.414;9.118;2023-01-28T05:31:12;-1.80;89.90
1155;DHT22;566;48.414;9.118;2023-01-28T05:33:39;-1.80;90.20
1155;DHT22;566;48.414;9.118;2023-01-28T05:36:05;-1.90;90.30
1155;DHT22;566;48.414;9.118;2023-01-28T05:38:30;-1.90;89.20
1155;DHT22;566;48.414;9.118;2023-01-28T05:40:56;-1.90;89.80
1155;DHT22;566;48.414;9.118;2023-01-28T05:43:21;-1.90;91.60
1155;DHT22;566;48.414;9.118;2023-01-28T05:45:47;-1.90;90.50
1155;DHT22;566;48.414;9.118;2023-01-28T05:48:13;-1.90;89.90
1155;DHT22;566;48.414;9.118;2023-01-28T05:50:46;-1.90;88.90
1155;DHT22;566;48.414;9.118;2023-01-28T05:53:11;-1.90;88.60
1155;DHT22;566;48.414;9.118;2023-01-28T05:55:37;-1.90;88.00
1155;DHT22;566;48.414;9.118;2023-01-28T05:58:02;-1.80;87.70
1155;DHT22;566;48.414;9.118;2023-01-28T06:00:28;-1.90;86.80
1155;DHT22;566;48.414;9.118;2023-01-28T06:02:53;-1.80;88.10
1155;DHT22;566;48.414;9.118;2023-01-28T06:05:19;-1.90;89.00
1155;DHT22;566;48.414;9.118;2023-01-28T06:07:46;-1.80;89.60
1155;DHT22;566;48.414;9.118;2023-01-28T06:10:13;-1.70;90.50
1155;DHT22;566;48.414;9.118;2023-01-28T06:12:39;-1.70;90.50
1155;DHT22;566;48.414;9.118;2023-01-28T06:15:04;-1.70;91.30
1155;DHT22;566;48.414;9.118;2023-01-28T06:17:30;-1.70;91.30
1155;DHT22;566;48.414;9.118;2023-01-28T06:19:56;-1.80;91.00
1155;DHT22;566;48.414;9.118;2023-01-28T06:22:22;-1.80;90.00
1155;DHT22;566;48.414;9.118;2023-01-28T06:24:47;-1.70;90.70
1155;DHT22;566;48.414;9.118;2023-01-28T06:27:13;-1.70;91.00
1155;DHT22;566;48.414;9.118;2023-01-28T06:29:38;-1.70;91.60
1155;DHT22;566;48.414;9.118;2023-01-28T06:32:04;-1.80;91.20
1155;DHT22;566;48.414;9.118;2023-01-28T06:34:30;-1.70;90.50
1155;DHT22;566;48.414;9.118;2023-01-28T06:36:56;-1.70;90.70
1155;DHT22;566;48.414;9.118;2023-01-28T06:39:21;-1.80;90.00
1155;DHT22;566;48.414;9.118;2023-01-28T06:41:48;-1.70;90.80
1155;DHT22;566;48.414;9.118;2023-01-28T06:44:14;-1.70;91.00
1155;DHT22;566;48.414;9.118;2023-01-28T06:46:40;-1.70;91.70
1155;DHT22;566;48.414;9.118;2023-01-28T06:49:05;-1.70;91.10
1155;DHT22;566;48.414;9.118;2023-01-28T06:51:31;-1.60;92.80
1155;DHT22;566;48.414;9.118;2023-01-28T06:53:56;-1.70;91.80
1155;DHT22;566;48.414;9.118;2023-01-28T06:56:22;-1.70;91.70
1155;DHT22;566;48.414;9.118;2023-01-28T06:58:48;-1.70;91.70
1155;DHT22;566;48.414;9.118;2023-01-28T07:01:14;-1.70;91.60
1155;DHT22;566;48.414;9.118;2023-01-28T07:03:39;-1.70;91.70
1155;DHT22;566;48.414;9.118;2023-01-28T07:06:05;-1.70;92.10
1155;DHT22;566;48.414;9.118;2023-01-28T07:08:31;-1.70;91.70
1155;DHT22;566;48.414;9.118;2023-01-28T07:10:57;-1.70;91.70
1155;DHT22;566;48.414;9.118;2023-01-28T07:13:23;-1.70;91.70
1155;DHT22;566;48.414;9.118;2023-01-28T07:15:49;-1.70;90.80
1155;DHT22;566;48.414;9.118;2023-01-28T07:18:15;-1.70;90.70
1155;DHT22;566;48.414;9.118;2023-01-28T07:20:41;-1.60;90.80
1155;DHT22;566;48.414;9.118;2023-01-28T07:23:06;-1.60;91.00
1155;DHT22;566;48.414;9.118;2023-01-28T07:25:32;-1.50;92.60
1155;DHT22;566;48.414;9.118;2023-01-28T07:27:58;-1.50;92.40
1155;DHT22;566;48.414;9.118;2023-01-28T07:30:26;-1.50;93.00
1155;DHT22;566;48.414;9.118;2023-01-28T07:32:56;-1.50;92.10
1155;DHT22;566;48.414;9.118;2023-01-28T07:35:23;-1.40;91.60
1155;DHT22;566;48.414;9.118;2023-01-28T07:37:53;-1.30;92.10
1155;DHT22;566;48.414;9.118;2023-01-28T07:40:20;-1.30;92.10
1155;DHT22;566;48.414;9.118;2023-01-28T07:42:46;-1.20;92.40
1155;DHT22;566;48.414;9.118;2023-01-28T07:45:12;-1.20;94.60
1155;DHT22;566;48.414;9.118;2023-01-28T07:47:38;-1.30;94.40
1155;DHT22;566;48.414;9.118;2023-01-28T07:50:04;-1.30;94.40
1155;DHT22;566;48.414;9.118;2023-01-28T07:52:29;-1.30;94.30
1155;DHT22;566;48.414;9.118;2023-01-28T07:54:55;-1.30;94.50
1155;DHT22;566;48.414;9.118;2023-01-28T07:57:21;-1.30;94.50
1155;DHT22;566;48.414;9.118;2023-01-28T07:59:49;-1.30;94.10
1155;DHT22;566;48.414;9.118;2023-01-28T08:02:16;-1.20;93.60
1155;DHT22;566;48.414;9.118;2023-01-28T08:04:42;-1.20;94.90
1155;DHT22;566;48.414;9.118;2023-01-28T08:07:08;-1.30;94.30
1155;DHT22;566;48.414;9.118;2023-01-28T08:09:33;-1.20;93.40
1155;DHT22;566;48.414;9.118;2023-01-28T08:12:00;-1.20;93.70
1155;DHT22;566;48.414;9.118;2023-01-28T08:14:27;-1.10;93.00
1155;DHT22;566;48.414;9.118;2023-01-28T08:16:52;-1.10;95.00
1155;DHT22;566;48.414;9.118;2023-01-28T08:19:18;-0.90;95.50
1155;DHT22;566;48.414;9.118;2023-01-28T08:21:46;-0.80;96.10
1155;DHT22;566;48.414;9.118;2023-01-28T08:24:12;-0.80;97.20
1155;DHT22;566;48.414;9.118;2023-01-28T08:26:38;-0.80;97.00
1155;DHT22;566;48.414;9.118;2023-01-28T08:29:03;-0.80;98.00
1155;DHT22;566;48.414;9.118;2023-01-28T08:31:29;-0.90;98.00
1155;DHT22;566;48.414;9.118;2023-01-28T08:33:55;-0.80;97.80
1155;DHT22;566;48.414;9.118;2023-01-28T08:36:21;-0.70;98.00
1155;DHT22;566;48.414;9.118;2023-01-28T08:38:51;-0.70;98.00
1155;DHT22;566;48.414;9.118;2023-01-28T08:41:19;-0.60;98.00
1155;DHT22;566;48.414;9.118;2023-01-28T08:43:46;-0.60;98.00
1155;DHT22;566;48.414;9.118;2023-01-28T08:46:11;-0.70;98.00
1155;DHT22;566;48.414;9.118;2023-01-28T08:48:37;-0.70;98.00
1155;DHT22;566;48.414;9.118;2023-01-28T08:51:03;-0.60;98.00
1155;DHT22;566;48.414;9.118;2023-01-28T08:53:28;-0.50;98.00
1155;DHT22;566;48.414;9.118;2023-01-28T08:55:54;-0.40;98.00
1155;DHT22;566;48.414;9.118;2023-01-28T08:58:20;-0.30;98.00
1155;DHT22;566;48.414;9.118;2023-01-28T09:00:47;-0.20;98.00
1155;DHT22;566;48.414;9.118;2023-01-28T09:03:12;-0.10;98.00
1155;DHT22;566;48.414;9.118;2023-01-28T09:05:38;-0.10;98.00
1155;DHT22;566;48.414;9.118;2023-01-28T09:08:06;0.00;98.00
1155;DHT22;566;48.414;9.118;2023-01-28T09:10:32;0.10;98.00
1155;DHT22;566;48.414;9.118;2023-01-28T09:12:58;0.20;98.00
1155;DHT22;566;48.414;9.118;2023-01-28T09:15:23;0.30;98.00
1155;DHT22;566;48.414;9.118;2023-01-28T09:17:49;0.40;98.00
1155;DHT22;566;48.414;9.118;2023-01-28T09:20:15;0.30;98.00
1155;DHT22;566;48.414;9.118;2023-01-28T09:22:40;0.30;98.00
1155;DHT22;566;48.414;9.118;2023-01-28T09:25:07;0.30;98.00
1155;DHT22;566;48.414;9.118;2023-01-28T09:27:32;0.30;98.00
1155;DHT22;566;48.414;9.118;2023-01-28T09:29:58;0.20;98.00
1155;DHT22;566;48.414;9.118;2023-01-28T09:32:23;0.20;98.00
1155;DHT22;566;48.414;9.118;2023-01-28T09:34:49;0.20;98.00
1155;DHT22;566;48.414;9.118;2023-01-28T09:37:15;0.20;98.00
1155;DHT22;566;48.414;9.118;2023-01-28T09:39:42;0.20;98.00
1155;DHT22;566;48.414;9.118;2023-01-28T09:45:02;0.30;98.00
1155;DHT22;566;48.414;9.118;2023-01-28T09:47:42;0.40;98.00
1155;DHT22;566;48.414;9.118;2023-01-28T09:50:31;0.40;98.00
1155;DHT22;566;48.414;9.118;2023-01-28T09:53:04;0.30;98.00
1155;DHT22;566;48.414;9.118;2023-01-28T09:55:36;0.40;98.00
1155;DHT22;566;48.414;9.118;2023-01-28T09:58:06;0.40;98.00
1155;DHT22;566;48.414;9.118;2023-01-28T10:01:01;0.50;98.00
1155;DHT22;566;48.414;9.118;2023-01-28T10:07:04;0.40;98.00
1155;DHT22;566;48.414;9.118;2023-01-28T10:09:51;0.50;98.00
1155;DHT22;566;48.414;9.118;2023-01-28T10:18:06;0.30;98.00
1155;DHT22;566;48.414;9.118;2023-01-28T10:20:43;0.30;98.00
1155;DHT22;566;48.414;9.118;2023-01-28T10:23:35;0.30;98.00
1155;DHT22;566;48.414;9.118;2023-01-28T10:26:06;0.30;98.00
1155;DHT22;566;48.414;9.118;2023-01-28T10:28:35;0.40;98.00
1155;DHT22;566;48.414;9.118;2023-01-28T10:31:01;0.40;98.00
1155;DHT22;566;48.414;9.118;2023-01-28T10:33:34;0.50;98.00
1155;DHT22;566;48.414;9.118;2023-01-28T10:36:00;0.60;98.00
1155;DHT22;566;48.414;9.118;2023-01-28T10:38:26;0.60;98.00
1155;DHT22;566;48.414;9.118;2023-01-28T10:40:58;0.60;98.00
1155;DHT22;566;48.414;9.118;2023-01-28T10:43:30;0.50;98.00
1155;DHT22;566;48.414;9.118;2023-01-28T10:46:12;0.30;98.00
1155;DHT22;566;48.414;9.118;2023-01-28T10:51:16;0.30;98.00
1155;DHT22;566;48.414;9.118;2023-01-28T10:53:45;0.30;98.00
1155;DHT22;566;48.414;9.118;2023-01-28T10:56:50;0.30;98.00
1155;DHT22;566;48.414;9.118;2023-01-28T10:59:28;0.50;98.00
1155;DHT22;566;48.414;9.118;2023-01-28T11:02:18;0.70;98.00
1155;DHT22;566;48.414;9.118;2023-01-28T11:04:44;0.70;98.00
1155;DHT22;566;48.414;9.118;2023-01-28T11:07:28;1.00;98.00
1155;DHT22;566;48.414;9.118;2023-01-28T11:09:53;1.20;98.00
1155;DHT22;566;48.414;9.118;2023-01-28T11:12:24;1.60;98.00
1155;DHT22;566;48.414;9.118;2023-01-28T11:14:55;1.80;98.00
1155;DHT22;566;48.414;9.118;2023-01-28T11:17:24;1.70;98.00
1155;DHT22;566;48.414;9.118;2023-01-28T11:19:52;1.60;98.00
1155;DHT22;566;48.414;9.118;2023-01-28T11:24:55;1.20;98.00
1155;DHT22;566;48.414;9.118;2023-01-28T11:27:26;1.20;98.00
1155;DHT22;566;48.414;9.118;2023-01-28T11:29:55;1.20;98.00
1155;DHT22;566;48.414;9.118;2023-01-28T11:32:25;1.20;98.00
1155;DHT22;566;48.414;9.118;2023-01-28T11:34:53;1.10;98.00
1155;DHT22;566;48.414;9.118;2023-01-28T11:37:24;1.00;98.00
1155;DHT22;566;48.414;9.118;2023-01-28T11:40:16;1.10;98.00
1155;DHT22;566;48.414;9.118;2023-01-28T11:42:45;1.40;98.00
1155;DHT22;566;48.414;9.118;2023-01-28T11:45:23;1.60;98.00
1155;DHT22;566;48.414;9.118;2023-01-28T11:48:17;1.70;98.00
1155;DHT22;566;48.414;9.118;2023-01-28T11:51:08;2.10;98.00
1155;DHT22;566;48.414;9.118;2023-01-28T11:53:53;2.30;98.00
1155;DHT22;566;48.414;9.118;2023-01-28T12:10:00;1.60;98.00
1155;DHT22;566;48.414;9.118;2023-01-28T12:15:32;1.10;98.00
1155;DHT22;566;48.414;9.118;2023-01-28T12:18:15;1.00;98.00
1155;DHT22;566;48.414;9.118;2023-01-28T12:20:53;1.10;98.00
1155;DHT22;566;48.414;9.118;2023-01-28T12:23:46;1.10;98.00
1155;DHT22;566;48.414;9.118;2023-01-28T12:29:19;1.30;98.00
1155;DHT22;566;48.414;9.118;2023-01-28T12:35:15;1.50;98.00
1155;DHT22;566;48.414;9.118;2023-01-28T12:41:03;2.10;98.00
1155;DHT22;566;48.414;9.118;2023-01-28T12:43:50;1.70;98.00
1155;DHT22;566;48.414;9.118;2023-01-28T12:46:40;1.70;98.00
1155;DHT22;566;48.414;9.118;2023-01-28T12:52:24;1.70;98.00
1155;DHT22;566;48.414;9.118;2023-01-28T12:55:03;1.70;98.00
1155;DHT22;566;48.414;9.118;2023-01-28T12:57:32;1.60;98.00
1155;DHT22;566;48.414;9.118;2023-01-28T13:00:36;1.70;98.00
1155;DHT22;566;48.414;9.118;2023-01-28T13:05:37;1.40;98.00
1155;DHT22;566;48.414;9.118;2023-01-28T13:10:45;1.10;98.00
1155;DHT22;566;48.414;9.118;2023-01-28T13:13:32;1.00;98.00
1155;DHT22;566;48.414;9.118;2023-01-28T13:16:00;1.00;98.00
1155;DHT22;566;48.414;9.118;2023-01-28T13:21:04;1.20;98.00
1155;DHT22;566;48.414;9.118;2023-01-28T13:23:43;1.30;98.00
1155;DHT22;566;48.414;9.118;2023-01-28T13:28:46;1.30;98.00
1155;DHT22;566;48.414;9.118;2023-01-28T13:31:14;1.60;98.00
1155;DHT22;566;48.414;9.118;2023-01-28T13:33:47;1.90;98.00
1155;DHT22;566;48.414;9.118;2023-01-28T13:38:57;1.80;98.00
1155;DHT22;566;48.414;9.118;2023-01-28T13:41:24;1.60;98.00
1155;DHT22;566;48.414;9.118;2023-01-28T13:44:00;1.40;98.00
1155;DHT22;566;48.414;9.118;2023-01-28T13:46:29;1.20;98.00
1155;DHT22;566;48.414;9.118;2023-01-28T13:48:58;1.10;98.00
1155;DHT22;566;48.414;9.118;2023-01-28T13:51:32;1.00;98.00
1155;DHT22;566;48.414;9.118;2023-01-28T13:54:14;0.90;98.00
1155;DHT22;566;48.414;9.118;2023-01-28T14:05:28;0.80;98.00
1155;DHT22;566;48.414;9.118;2023-01-28T14:14:08;0.90;98.00
1155;DHT22;566;48.414;9.118;2023-01-28T14:16:57;0.80;98.00
1155;DHT22;566;48.414;9.118;2023-01-28T14:19:36;1.00;98.00
1155;DHT22;566;48.414;9.118;2023-01-28T14:22:09;1.10;98.00
1155;DHT22;566;48.414;9.118;2023-01-28T14:24:38;0.90;98.00
1155;DHT22;566;48.414;9.118;2023-01-28T14:32:27;0.60;98.00
1155;DHT22;566;48.414;9.118;2023-01-28T14:34:54;0.70;98.00
1155;DHT22;566;48.414;9.118;2023-01-28T14:37:28;0.70;98.00
1155;DHT22;566;48.414;9.118;2023-01-28T14:40:00;0.70;98.00
1155;DHT22;566;48.414;9.118;2023-01-28T14:42:38;0.60;98.00
1155;DHT22;566;48.414;9.118;2023-01-28T14:45:18;0.60;98.00
1155;DHT22;566;48.414;9.118;2023-01-28T14:51:06;0.50;98.00
1155;DHT22;566;48.414;9.118;2023-01-28T14:54:13;0.50;98.00
1155;DHT22;566;48.414;9.118;2023-01-28T14:59:23;0.40;98.00
1155;DHT22;566;48.414;9.118;2023-01-28T15:01:55;0.40;98.00
1155;DHT22;566;48.414;9.118;2023-01-28T15:04:32;0.30;98.00
1155;DHT22;566;48.414;9.118;2023-01-28T15:07:17;0.20;98.00
1155;DHT22;566;48.414;9.118;2023-01-28T15:09:43;0.10;98.00
1155;DHT22;566;48.414;9.118;2023-01-28T15:12:10;0.10;98.00
1155;DHT22;566;48.414;9.118;2023-01-28T15:14:37;0.10;98.00
1155;DHT22;566;48.414;9.118;2023-01-28T15:17:04;0.20;98.00
1155;DHT22;566;48.414;9.118;2023-01-28T15:19:34;0.20;98.00
1155;DHT22;566;48.414;9.118;2023-01-28T15:22:06;0.10;98.00
1155;DHT22;566;48.414;9.118;2023-01-28T15:24:35;0.00;98.00
1155;DHT22;566;48.414;9.118;2023-01-28T15:27:01;0.00;98.00
1155;DHT22;566;48.414;9.118;2023-01-28T15:29:32;0.00;98.00
1155;DHT22;566;48.414;9.118;2023-01-28T15:31:59;-0.10;98.00
1155;DHT22;566;48.414;9.118;2023-01-28T15:34:25;-0.10;98.00
1155;DHT22;566;48.414;9.118;2023-01-28T15:36:58;-0.20;98.00
1155;DHT22;566;48.414;9.118;2023-01-28T15:39:25;-0.10;98.00
1155;DHT22;566;48.414;9.118;2023-01-28T15:41:58;-0.10;98.00
1155;DHT22;566;48.414;9.118;2023-01-28T15:44:36;-0.10;98.00
1155;DHT22;566;48.414;9.118;2023-01-28T15:47:10;-0.20;98.00
1155;DHT22;566;48.414;9.118;2023-01-28T15:49:45;-0.20;98.00
1155;DHT22;566;48.414;9.118;2023-01-28T15:52:12;-0.20;98.00
1155;DHT22;566;48.414;9.118;2023-01-28T15:54:39;-0.20;97.50
1155;DHT22;566;48.414;9.118;2023-01-28T15:57:25;-0.30;97.20
1155;DHT22;566;48.414;9.118;2023-01-28T16:02:32;-0.20;97.50
1155;DHT22;566;48.414;9.118;2023-01-28T16:05:30;-0.20;96.80
1155;DHT22;566;48.414;9.118;2023-01-28T16:07:57;-0.30;95.80
1155;DHT22;566;48.414;9.118;2023-01-28T16:10:26;-0.20;96.60
1155;DHT22;566;48.414;9.118;2023-01-28T16:13:31;-0.20;95.60
1155;DHT22;566;48.414;9.118;2023-01-28T16:15:58;-0.30;94.90
1155;DHT22;566;48.414;9.118;2023-01-28T16:18:40;-0.40;94.20
1155;DHT22;566;48.414;9.118;2023-01-28T16:21:10;-0.40;93.70
1155;DHT22;566;48.414;9.118;2023-01-28T16:23:37;-0.40;93.20
1155;DHT22;566;48.414;9.118;2023-01-28T16:26:25;-0.30;92.80
1155;DHT22;566;48.414;9.118;2023-01-28T16:28:51;-0.30;93.20
1155;DHT22;566;48.414;9.118;2023-01-28T16:31:18;-0.30;93.40
1155;DHT22;566;48.414;9.118;2023-01-28T16:33:44;-0.30;93.40
1155;DHT22;566;48.414;9.118;2023-01-28T16:36:15;-0.30;93.00
1155;DHT22;566;48.414;9.118;2023-01-28T16:38:41;-0.30;92.20
1155;DHT22;566;48.414;9.118;2023-01-28T16:41:20;-0.40;92.10
1155;DHT22;566;48.414;9.118;2023-01-28T16:43:46;-0.30;91.70
1155;DHT22;566;48.414;9.118;2023-01-28T16:46:12;-0.30;92.60
1155;DHT22;566;48.414;9.118;2023-01-28T16:48:37;-0.40;92.60
1155;DHT22;566;48.414;9.118;2023-01-28T16:51:14;-0.40;91.50
1155;DHT22;566;48.414;9.118;2023-01-28T16:53:41;-0.50;90.90
1155;DHT22;566;48.414;9.118;2023-01-28T16:56:12;-0.50;90.30
1155;DHT22;566;48.414;9.118;2023-01-28T16:58:37;-0.50;89.60
1155;DHT22;566;48.414;9.118;2023-01-28T17:01:03;-0.50;90.20
1155;DHT22;566;48.414;9.118;2023-01-28T17:03:29;-0.50;90.20
1155;DHT22;566;48.414;9.118;2023-01-28T17:05:54;-0.50;90.50
1155;DHT22;566;48.414;9.118;2023-01-28T17:08:21;-0.50;90.60
1155;DHT22;566;48.414;9.118;2023-01-28T17:10:53;-0.50;90.90
1155;DHT22;566;48.414;9.118;2023-01-28T17:13:19;-0.50;90.50
1155;DHT22;566;48.414;9.118;2023-01-28T17:15:45;-0.50;90.60
1155;DHT22;566;48.414;9.118;2023-01-28T17:18:11;-0.50;90.00
1155;DHT22;566;48.414;9.118;2023-01-28T17:20:37;-0.50;89.20
1155;DHT22;566;48.414;9.118;2023-01-28T17:23:05;-0.50;89.60
1155;DHT22;566;48.414;9.118;2023-01-28T17:25:39;-0.40;91.80
1155;DHT22;566;48.414;9.118;2023-01-28T17:28:09;-0.50;91.40
1155;DHT22;566;48.414;9.118;2023-01-28T17:30:38;-0.50;91.70
1155;DHT22;566;48.414;9.118;2023-01-28T17:33:04;-0.50;90.50
1155;DHT22;566;48.414;9.118;2023-01-28T17:35:30;-0.50;91.30
1155;DHT22;566;48.414;9.118;2023-01-28T17:37:56;-0.60;92.00
1155;DHT22;566;48.414;9.118;2023-01-28T17:40:22;-0.60;91.10
1155;DHT22;566;48.414;9.118;2023-01-28T17:42:48;-0.60;91.60
1155;DHT22;566;48.414;9.118;2023-01-28T17:45:14;-0.60;90.90
1155;DHT22;566;48.414;9.118;2023-01-28T17:47:41;-0.50;91.20
1155;DHT22;566;48.414;9.118;2023-01-28T17:50:06;-0.60;91.50
1155;DHT22;566;48.414;9.118;2023-01-28T17:52:32;-0.60;90.90
1155;DHT22;566;48.414;9.118;2023-01-28T17:54:58;-0.60;91.70
1155;DHT22;566;48.414;9.118;2023-01-28T17:57:23;-0.60;92.30
1155;DHT22;566;48.414;9.118;2023-01-28T17:59:49;-0.60;92.50
1155;DHT22;566;48.414;9.118;2023-01-28T18:02:15;-0.60;92.00
1155;DHT22;566;48.414;9.118;2023-01-28T18:04:41;-0.70;91.10
1155;DHT22;566;48.414;9.118;2023-01-28T18:07:08;-0.70;90.80
1155;DHT22;566;48.414;9.118;2023-01-28T18:09:40;-0.70;90.90
1155;DHT22;566;48.414;9.118;2023-01-28T18:12:09;-0.70;90.60
1155;DHT22;566;48.414;9.118;2023-01-28T18:14:36;-0.70;90.40
1155;DHT22;566;48.414;9.118;2023-01-28T18:17:02;-0.60;90.10
1155;DHT22;566;48.414;9.118;2023-01-28T18:19:28;-0.60;90.30
1155;DHT22;566;48.414;9.118;2023-01-28T18:21:54;-0.70;90.80
1155;DHT22;566;48.414;9.118;2023-01-28T18:24:25;-0.60;91.10
1155;DHT22;566;48.414;9.118;2023-01-28T18:26:52;-0.60;91.50
1155;DHT22;566;48.414;9.118;2023-01-28T18:29:23;-0.70;90.70